sensor_id;sensor_type;location;lat;lon;timestamp;P1;durP1;ratioP1;P2;durP2;ratioP2
79084;SDS011;68486;42.808;23.422;2023-04-01T00:00:50;5.55;;;2.05;;
79084;SDS011;68486;42.808;23.422;2023-04-01T00:03:17;13.20;;;2.45;;
79084;SDS011;68486;42.808;23.422;2023-04-01T00:05:43;8.55;;;2.38;;
79084;SDS011;68486;42.808;23.422;2023-04-01T00:08:08;5.85;;;2.10;;
79084;SDS011;68486;42.808;23.422;2023-04-01T00:10:34;6.78;;;2.58;;
79084;SDS011;68486;42.808;23.422;2023-04-01T00:12:59;4.13;;;2.40;;
79084;SDS011;68486;42.808;23.422;2023-04-01T00:15:25;5.07;;;2.58;;
79084;SDS011;68486;42.808;23.422;2023-04-01T00:17:51;4.63;;;2.88;;
79084;SDS011;68486;42.808;23.422;2023-04-01T00:20:16;2.90;;;1.88;;
79084;SDS011;68486;42.808;23.422;2023-04-01T00:22:42;4.35;;;2.30;;
79084;SDS011;68486;42.808;23.422;2023-04-01T00:25:07;6.47;;;2.47;;
79084;SDS011;68486;42.808;23.422;2023-04-01T00:27:33;9.15;;;2.08;;
79084;SDS011;68486;42.808;23.422;2023-04-01T00:29:59;7.00;;;2.20;;
79084;SDS011;68486;42.808;23.422;2023-04-01T00:32:24;6.57;;;3.28;;
79084;SDS011;68486;42.808;23.422;2023-04-01T00:34:51;9.32;;;2.55;;
79084;SDS011;68486;42.808;23.422;2023-04-01T00:37:17;4.65;;;2.10;;
79084;SDS011;68486;42.808;23.422;2023-04-01T00:39:42;3.97;;;1.67;;
79084;SDS011;68486;42.808;23.422;2023-04-01T00:42:09;4.90;;;2.72;;
79084;SDS011;68486;42.808;23.422;2023-04-01T00:44:36;7.65;;;2.45;;
79084;SDS011;68486;42.808;23.422;2023-04-01T00:47:03;4.22;;;1.73;;
79084;SDS011;68486;42.808;23.422;2023-04-01T00:49:29;3.40;;;1.92;;
79084;SDS011;68486;42.808;23.422;2023-04-01T00:51:59;3.80;;;1.88;;
79084;SDS011;68486;42.808;23.422;2023-04-01T00:54:29;5.10;;;1.98;;
79084;SDS011;68486;42.808;23.422;2023-04-01T00:57:02;4.03;;;1.73;;
79084;SDS011;68486;42.808;23.422;2023-04-01T00:59:33;5.65;;;2.60;;
79084;SDS011;68486;42.808;23.422;2023-04-01T01:02:03;5.05;;;2.15;;
79084;SDS011;68486;42.808;23.422;2023-04-01T01:04:32;4.25;;;2.15;;
79084;SDS011;68486;42.808;23.422;2023-04-01T01:09:53;5.00;;;1.90;;
79084;SDS011;68486;42.808;23.422;2023-04-01T01:26:21;7.95;;;2.70;;
79084;SDS011;68486;42.808;23.422;2023-04-01T01:37:40;7.80;;;4.40;;
79084;SDS011;68486;42.808;23.422;2023-04-01T01:40:09;11.63;;;5.10;;
79084;SDS011;68486;42.808;23.422;2023-04-01T01:42:37;5.40;;;3.15;;
79084;SDS011;68486;42.808;23.422;2023-04-01T01:45:08;12.20;;;4.65;;
79084;SDS011;68486;42.808;23.422;2023-04-01T01:47:35;8.10;;;5.07;;
79084;SDS011;68486;42.808;23.422;2023-04-01T01:50:01;10.68;;;5.57;;
79084;SDS011;68486;42.808;23.422;2023-04-01T01:52:28;7.43;;;4.70;;
79084;SDS011;68486;42.808;23.422;2023-04-01T01:54:55;8.05;;;5.90;;
79084;SDS011;68486;42.808;23.422;2023-04-01T01:57:32;13.88;;;5.63;;
79084;SDS011;68486;42.808;23.422;2023-04-01T02:02:28;10.60;;;5.82;;
79084;SDS011;68486;42.808;23.422;2023-04-01T02:04:56;11.38;;;6.18;;
79084;SDS011;68486;42.808;23.422;2023-04-01T02:07:27;10.88;;;5.32;;
79084;SDS011;68486;42.808;23.422;2023-04-01T02:09:58;9.52;;;5.38;;
79084;SDS011;68486;42.808;23.422;2023-04-01T02:12:24;9.40;;;4.40;;
79084;SDS011;68486;42.808;23.422;2023-04-01T02:14:52;13.07;;;4.70;;
79084;SDS011;68486;42.808;23.422;2023-04-01T02:17:22;8.15;;;3.80;;
79084;SDS011;68486;42.808;23.422;2023-04-01T02:19:58;7.63;;;4.00;;
79084;SDS011;68486;42.808;23.422;2023-04-01T02:22:29;9.82;;;4.60;;
79084;SDS011;68486;42.808;23.422;2023-04-01T02:25:08;7.93;;;3.80;;
79084;SDS011;68486;42.808;23.422;2023-04-01T02:27:37;6.18;;;3.67;;
79084;SDS011;68486;42.808;23.422;2023-04-01T02:30:04;6.30;;;3.88;;
79084;SDS011;68486;42.808;23.422;2023-04-01T02:32:30;8.70;;;3.42;;
79084;SDS011;68486;42.808;23.422;2023-04-01T02:34:58;7.43;;;3.35;;
79084;SDS011;68486;42.808;23.422;2023-04-01T02:37:25;5.95;;;3.13;;
79084;SDS011;68486;42.808;23.422;2023-04-01T02:40:03;7.63;;;3.72;;
79084;SDS011;68486;42.808;23.422;2023-04-01T02:42:31;6.82;;;3.72;;
79084;SDS011;68486;42.808;23.422;2023-04-01T02:44:57;6.75;;;3.47;;
79084;SDS011;68486;42.808;23.422;2023-04-01T02:47:22;5.50;;;3.08;;
79084;SDS011;68486;42.808;23.422;2023-04-01T02:49:48;7.53;;;3.35;;
79084;SDS011;68486;42.808;23.422;2023-04-01T02:52:13;5.07;;;2.75;;
79084;SDS011;68486;42.808;23.422;2023-04-01T02:54:38;6.07;;;3.38;;
79084;SDS011;68486;42.808;23.422;2023-04-01T02:57:04;5.78;;;3.58;;
79084;SDS011;68486;42.808;23.422;2023-04-01T02:59:30;6.28;;;2.90;;
79084;SDS011;68486;42.808;23.422;2023-04-01T03:01:55;6.60;;;3.35;;
79084;SDS011;68486;42.808;23.422;2023-04-01T03:04:20;6.15;;;3.65;;
79084;SDS011;68486;42.808;23.422;2023-04-01T03:06:46;3.97;;;2.75;;
79084;SDS011;68486;42.808;23.422;2023-04-01T03:09:11;7.65;;;3.25;;
79084;SDS011;68486;42.808;23.422;2023-04-01T03:11:37;4.05;;;2.72;;
79084;SDS011;68486;42.808;23.422;2023-04-01T03:14:02;7.63;;;3.28;;
79084;SDS011;68486;42.808;23.422;2023-04-01T03:16:27;7.15;;;3.40;;
79084;SDS011;68486;42.808;23.422;2023-04-01T03:18:53;8.80;;;4.25;;
79084;SDS011;68486;42.808;23.422;2023-04-01T03:21:22;7.95;;;2.78;;
79084;SDS011;68486;42.808;23.422;2023-04-01T03:23:48;6.22;;;3.35;;
79084;SDS011;68486;42.808;23.422;2023-04-01T03:26:14;7.13;;;3.50;;
79084;SDS011;68486;42.808;23.422;2023-04-01T03:28:41;12.63;;;3.60;;
79084;SDS011;68486;42.808;23.422;2023-04-01T03:31:06;8.63;;;3.55;;
79084;SDS011;68486;42.808;23.422;2023-04-01T03:33:32;6.10;;;2.90;;
79084;SDS011;68486;42.808;23.422;2023-04-01T03:35:57;4.97;;;3.50;;
79084;SDS011;68486;42.808;23.422;2023-04-01T03:38:23;6.03;;;3.70;;
79084;SDS011;68486;42.808;23.422;2023-04-01T03:40:48;9.75;;;4.25;;
79084;SDS011;68486;42.808;23.422;2023-04-01T03:43:14;5.70;;;3.58;;
79084;SDS011;68486;42.808;23.422;2023-04-01T03:45:44;9.95;;;3.28;;
79084;SDS011;68486;42.808;23.422;2023-04-01T03:48:12;7.10;;;3.22;;
79084;SDS011;68486;42.808;23.422;2023-04-01T03:50:37;7.38;;;3.35;;
79084;SDS011;68486;42.808;23.422;2023-04-01T03:53:03;5.65;;;3.53;;
79084;SDS011;68486;42.808;23.422;2023-04-01T03:55:28;7.13;;;3.72;;
79084;SDS011;68486;42.808;23.422;2023-04-01T03:57:53;7.25;;;3.33;;
79084;SDS011;68486;42.808;23.422;2023-04-01T04:00:19;6.65;;;2.65;;
79084;SDS011;68486;42.808;23.422;2023-04-01T04:02:44;6.32;;;2.90;;
79084;SDS011;68486;42.808;23.422;2023-04-01T04:05:10;5.68;;;2.70;;
79084;SDS011;68486;42.808;23.422;2023-04-01T04:07:35;6.07;;;2.80;;
79084;SDS011;68486;42.808;23.422;2023-04-01T04:10:01;6.22;;;2.65;;
79084;SDS011;68486;42.808;23.422;2023-04-01T04:12:27;5.50;;;2.75;;
79084;SDS011;68486;42.808;23.422;2023-04-01T04:14:52;4.30;;;2.50;;
79084;SDS011;68486;42.808;23.422;2023-04-01T04:17:17;4.80;;;2.50;;
79084;SDS011;68486;42.808;23.422;2023-04-01T04:19:44;7.20;;;2.40;;
79084;SDS011;68486;42.808;23.422;2023-04-01T04:22:10;5.03;;;2.40;;
79084;SDS011;68486;42.808;23.422;2023-04-01T04:24:35;6.43;;;2.20;;
79084;SDS011;68486;42.808;23.422;2023-04-01T04:27:01;5.32;;;2.38;;
79084;SDS011;68486;42.808;23.422;2023-04-01T04:29:26;4.45;;;2.33;;
79084;SDS011;68486;42.808;23.422;2023-04-01T04:31:52;4.43;;;2.20;;
79084;SDS011;68486;42.808;23.422;2023-04-01T04:34:18;3.95;;;2.08;;
79084;SDS011;68486;42.808;23.422;2023-04-01T04:36:43;3.65;;;1.90;;
79084;SDS011;68486;42.808;23.422;2023-04-01T04:39:09;5.93;;;2.13;;
79084;SDS011;68486;42.808;23.422;2023-04-01T04:41:36;4.15;;;1.80;;
79084;SDS011;68486;42.808;23.422;2023-04-01T04:44:03;2.75;;;2.00;;
79084;SDS011;68486;42.808;23.422;2023-04-01T04:46:29;4.60;;;2.13;;
79084;SDS011;68486;42.808;23.422;2023-04-01T04:48:54;4.40;;;2.00;;
79084;SDS011;68486;42.808;23.422;2023-04-01T04:51:20;6.18;;;2.20;;
79084;SDS011;68486;42.808;23.422;2023-04-01T04:53:46;3.53;;;2.10;;
79084;SDS011;68486;42.808;23.422;2023-04-01T04:56:12;3.85;;;1.88;;
79084;SDS011;68486;42.808;23.422;2023-04-01T04:58:38;3.17;;;1.63;;
79084;SDS011;68486;42.808;23.422;2023-04-01T05:01:05;7.40;;;2.10;;
79084;SDS011;68486;42.808;23.422;2023-04-01T05:03:35;4.00;;;1.73;;
79084;SDS011;68486;42.808;23.422;2023-04-01T05:06:01;3.83;;;1.90;;
79084;SDS011;68486;42.808;23.422;2023-04-01T05:08:27;3.85;;;2.00;;
79084;SDS011;68486;42.808;23.422;2023-04-01T05:10:52;6.43;;;2.13;;
79084;SDS011;68486;42.808;23.422;2023-04-01T05:13:18;6.35;;;2.40;;
79084;SDS011;68486;42.808;23.422;2023-04-01T05:15:43;4.50;;;2.40;;
79084;SDS011;68486;42.808;23.422;2023-04-01T05:18:09;7.55;;;3.67;;
79084;SDS011;68486;42.808;23.422;2023-04-01T05:20:34;7.30;;;3.70;;
79084;SDS011;68486;42.808;23.422;2023-04-01T05:23:00;6.75;;;3.10;;
79084;SDS011;68486;42.808;23.422;2023-04-01T05:25:26;4.60;;;2.63;;
79084;SDS011;68486;42.808;23.422;2023-04-01T05:27:51;5.20;;;2.50;;
79084;SDS011;68486;42.808;23.422;2023-04-01T05:30:17;4.60;;;2.60;;
79084;SDS011;68486;42.808;23.422;2023-04-01T05:32:42;5.65;;;2.40;;
79084;SDS011;68486;42.808;23.422;2023-04-01T05:35:09;5.57;;;2.75;;
79084;SDS011;68486;42.808;23.422;2023-04-01T05:37:35;6.22;;;2.60;;
79084;SDS011;68486;42.808;23.422;2023-04-01T05:40:01;10.65;;;4.05;;
79084;SDS011;68486;42.808;23.422;2023-04-01T05:42:26;9.25;;;4.93;;
79084;SDS011;68486;42.808;23.422;2023-04-01T05:44:52;7.43;;;4.68;;
79084;SDS011;68486;42.808;23.422;2023-04-01T05:47:17;8.60;;;4.13;;
79084;SDS011;68486;42.808;23.422;2023-04-01T05:49:43;8.23;;;4.78;;
79084;SDS011;68486;42.808;23.422;2023-04-01T05:52:08;8.77;;;4.75;;
79084;SDS011;68486;42.808;23.422;2023-04-01T05:54:34;8.27;;;3.63;;
79084;SDS011;68486;42.808;23.422;2023-04-01T05:56:59;9.52;;;4.82;;
79084;SDS011;68486;42.808;23.422;2023-04-01T05:59:25;9.13;;;4.05;;
79084;SDS011;68486;42.808;23.422;2023-04-01T06:01:50;11.73;;;4.90;;
79084;SDS011;68486;42.808;23.422;2023-04-01T06:04:16;10.98;;;5.20;;
79084;SDS011;68486;42.808;23.422;2023-04-01T06:06:44;15.23;;;6.47;;
79084;SDS011;68486;42.808;23.422;2023-04-01T06:09:19;13.65;;;5.55;;
79084;SDS011;68486;42.808;23.422;2023-04-01T06:15:03;14.95;;;7.45;;
79084;SDS011;68486;42.808;23.422;2023-04-01T06:17:43;15.77;;;7.25;;
79084;SDS011;68486;42.808;23.422;2023-04-01T06:25:29;13.10;;;5.93;;
79084;SDS011;68486;42.808;23.422;2023-04-01T06:28:07;16.92;;;5.28;;
79084;SDS011;68486;42.808;23.422;2023-04-01T06:30:45;8.73;;;4.55;;
79084;SDS011;68486;42.808;23.422;2023-04-01T06:36:43;9.77;;;4.68;;
79084;SDS011;68486;42.808;23.422;2023-04-01T06:39:46;11.73;;;4.40;;
79084;SDS011;68486;42.808;23.422;2023-04-01T06:45:06;10.25;;;4.10;;
79084;SDS011;68486;42.808;23.422;2023-04-01T06:53:04;6.47;;;3.05;;
79084;SDS011;68486;42.808;23.422;2023-04-01T06:55:51;4.90;;;2.70;;
79084;SDS011;68486;42.808;23.422;2023-04-01T07:00:56;7.30;;;2.95;;
79084;SDS011;68486;42.808;23.422;2023-04-01T07:06:01;4.43;;;2.60;;
79084;SDS011;68486;42.808;23.422;2023-04-01T07:08:29;3.63;;;2.22;;
79084;SDS011;68486;42.808;23.422;2023-04-01T07:10:58;6.93;;;3.03;;
79084;SDS011;68486;42.808;23.422;2023-04-01T07:13:29;4.60;;;2.75;;
79084;SDS011;68486;42.808;23.422;2023-04-01T07:21:26;3.08;;;2.20;;
79084;SDS011;68486;42.808;23.422;2023-04-01T07:24:34;7.45;;;2.65;;
79084;SDS011;68486;42.808;23.422;2023-04-01T07:26:57;8.10;;;2.72;;
79084;SDS011;68486;42.808;23.422;2023-04-01T07:29:23;5.78;;;3.00;;
79084;SDS011;68486;42.808;23.422;2023-04-01T07:37:33;5.35;;;2.70;;
79084;SDS011;68486;42.808;23.422;2023-04-01T07:40:21;7.90;;;2.35;;
79084;SDS011;68486;42.808;23.422;2023-04-01T07:43:03;3.70;;;2.03;;
79084;SDS011;68486;42.808;23.422;2023-04-01T07:45:38;4.97;;;2.33;;
79084;SDS011;68486;42.808;23.422;2023-04-01T07:51:00;3.92;;;2.35;;
79084;SDS011;68486;42.808;23.422;2023-04-01T07:56:17;4.68;;;2.58;;
79084;SDS011;68486;42.808;23.422;2023-04-01T08:07:36;6.10;;;2.60;;
79084;SDS011;68486;42.808;23.422;2023-04-01T08:10:10;7.10;;;3.10;;
79084;SDS011;68486;42.808;23.422;2023-04-01T08:17:57;5.82;;;2.47;;
79084;SDS011;68486;42.808;23.422;2023-04-01T08:30:58;5.97;;;2.85;;
79084;SDS011;68486;42.808;23.422;2023-04-01T08:33:37;6.00;;;2.88;;
79084;SDS011;68486;42.808;23.422;2023-04-01T08:36:19;4.80;;;2.55;;
79084;SDS011;68486;42.808;23.422;2023-04-01T08:39:09;8.68;;;3.55;;
79084;SDS011;68486;42.808;23.422;2023-04-01T09:47:50;4.75;;;2.30;;
79084;SDS011;68486;42.808;23.422;2023-04-01T09:50:38;7.25;;;2.85;;
79084;SDS011;68486;42.808;23.422;2023-04-01T09:59:15;16.60;;;4.35;;
79084;SDS011;68486;42.808;23.422;2023-04-01T10:08:25;9.63;;;2.10;;
79084;SDS011;68486;42.808;23.422;2023-04-01T10:25:48;5.75;;;2.58;;
79084;SDS011;68486;42.808;23.422;2023-04-01T10:31:24;6.07;;;2.42;;
79084;SDS011;68486;42.808;23.422;2023-04-01T10:36:48;5.95;;;2.88;;
79084;SDS011;68486;42.808;23.422;2023-04-01T10:39:19;5.75;;;2.40;;
79084;SDS011;68486;42.808;23.422;2023-04-01T11:04:41;8.90;;;2.85;;
79084;SDS011;68486;42.808;23.422;2023-04-01T11:13:16;5.97;;;2.90;;
79084;SDS011;68486;42.808;23.422;2023-04-01T11:19:19;7.72;;;3.88;;
79084;SDS011;68486;42.808;23.422;2023-04-01T11:28:30;8.45;;;2.60;;
79084;SDS011;68486;42.808;23.422;2023-04-01T11:33:54;7.95;;;2.90;;
79084;SDS011;68486;42.808;23.422;2023-04-01T11:39:29;5.22;;;2.63;;
79084;SDS011;68486;42.808;23.422;2023-04-01T11:42:10;8.48;;;2.55;;
79084;SDS011;68486;42.808;23.422;2023-04-01T11:44:37;5.95;;;3.33;;
79084;SDS011;68486;42.808;23.422;2023-04-01T11:47:12;7.50;;;3.55;;
79084;SDS011;68486;42.808;23.422;2023-04-01T11:49:59;4.38;;;2.42;;
79084;SDS011;68486;42.808;23.422;2023-04-01T11:55:23;7.30;;;3.55;;
79084;SDS011;68486;42.808;23.422;2023-04-01T12:20:41;8.38;;;2.33;;
79084;SDS011;68486;42.808;23.422;2023-04-01T12:23:23;4.20;;;2.72;;
79084;SDS011;68486;42.808;23.422;2023-04-01T12:28:25;3.35;;;2.38;;
79084;SDS011;68486;42.808;23.422;2023-04-01T12:31:03;6.68;;;2.30;;
79084;SDS011;68486;42.808;23.422;2023-04-01T12:33:52;6.18;;;2.65;;
79084;SDS011;68486;42.808;23.422;2023-04-01T12:47:31;3.92;;;2.60;;
79084;SDS011;68486;42.808;23.422;2023-04-01T12:55:44;3.08;;;1.90;;
79084;SDS011;68486;42.808;23.422;2023-04-01T13:09:34;5.78;;;2.15;;
79084;SDS011;68486;42.808;23.422;2023-04-01T13:22:41;2.92;;;1.75;;
79084;SDS011;68486;42.808;23.422;2023-04-01T13:25:17;3.88;;;2.05;;
79084;SDS011;68486;42.808;23.422;2023-04-01T13:27:56;4.97;;;1.95;;
79084;SDS011;68486;42.808;23.422;2023-04-01T13:30:33;4.80;;;2.70;;
79084;SDS011;68486;42.808;23.422;2023-04-01T13:44:07;4.38;;;2.25;;
79084;SDS011;68486;42.808;23.422;2023-04-01T14:00:50;3.10;;;1.92;;
79084;SDS011;68486;42.808;23.422;2023-04-01T14:06:56;4.05;;;1.85;;
79084;SDS011;68486;42.808;23.422;2023-04-01T14:15:40;3.28;;;1.85;;
79084;SDS011;68486;42.808;23.422;2023-04-01T14:18:19;3.85;;;2.28;;
79084;SDS011;68486;42.808;23.422;2023-04-01T14:44:10;3.00;;;1.90;;
79084;SDS011;68486;42.808;23.422;2023-04-01T14:47:07;3.53;;;2.00;;
79084;SDS011;68486;42.808;23.422;2023-04-01T14:50:18;2.47;;;1.70;;
79084;SDS011;68486;42.808;23.422;2023-04-01T14:52:40;2.85;;;1.60;;
79084;SDS011;68486;42.808;23.422;2023-04-01T14:55:28;3.30;;;1.77;;
79084;SDS011;68486;42.808;23.422;2023-04-01T14:58:08;2.83;;;1.92;;
79084;SDS011;68486;42.808;23.422;2023-04-01T15:11:48;4.28;;;2.00;;
79084;SDS011;68486;42.808;23.422;2023-04-01T15:14:31;4.40;;;2.05;;
79084;SDS011;68486;42.808;23.422;2023-04-01T15:20:16;2.83;;;1.83;;
79084;SDS011;68486;42.808;23.422;2023-04-01T15:23:01;4.40;;;1.85;;
79084;SDS011;68486;42.808;23.422;2023-04-01T15:31:16;2.92;;;1.92;;
79084;SDS011;68486;42.808;23.422;2023-04-01T15:42:36;3.35;;;2.05;;
79084;SDS011;68486;42.808;23.422;2023-04-01T15:45:30;5.40;;;2.10;;
79084;SDS011;68486;42.808;23.422;2023-04-01T15:48:05;6.25;;;2.60;;
79084;SDS011;68486;42.808;23.422;2023-04-01T16:10:04;2.30;;;1.83;;
79084;SDS011;68486;42.808;23.422;2023-04-01T16:17:58;2.05;;;1.50;;
79084;SDS011;68486;42.808;23.422;2023-04-01T16:31:55;1.63;;;1.20;;
79084;SDS011;68486;42.808;23.422;2023-04-01T16:35:49;2.58;;;1.35;;
79084;SDS011;68486;42.808;23.422;2023-04-01T16:43:35;2.13;;;1.60;;
79084;SDS011;68486;42.808;23.422;2023-04-01T16:47:17;1.58;;;1.42;;
79084;SDS011;68486;42.808;23.422;2023-04-01T16:50:51;1.85;;;1.42;;
79084;SDS011;68486;42.808;23.422;2023-04-01T16:58:34;1.98;;;1.60;;
79084;SDS011;68486;42.808;23.422;2023-04-01T17:02:03;3.17;;;2.60;;
79084;SDS011;68486;42.808;23.422;2023-04-01T17:05:38;3.10;;;2.20;;
79084;SDS011;68486;42.808;23.422;2023-04-01T17:09:50;4.72;;;2.55;;
79084;SDS011;68486;42.808;23.422;2023-04-01T17:35:32;3.10;;;2.30;;
79084;SDS011;68486;42.808;23.422;2023-04-01T17:54:08;2.63;;;1.90;;
79084;SDS011;68486;42.808;23.422;2023-04-01T18:05:12;2.08;;;1.75;;
79084;SDS011;68486;42.808;23.422;2023-04-01T18:24:14;3.30;;;3.00;;
79084;SDS011;68486;42.808;23.422;2023-04-01T18:27:45;3.55;;;2.80;;
79084;SDS011;68486;42.808;23.422;2023-04-01T18:31:42;4.35;;;2.90;;
79084;SDS011;68486;42.808;23.422;2023-04-01T18:38:50;4.47;;;3.42;;
79084;SDS011;68486;42.808;23.422;2023-04-01T18:49:35;3.13;;;2.28;;
79084;SDS011;68486;42.808;23.422;2023-04-01T18:56:47;3.47;;;2.67;;
79084;SDS011;68486;42.808;23.422;2023-04-01T19:00:36;3.55;;;2.67;;
79084;SDS011;68486;42.808;23.422;2023-04-01T19:04:08;3.80;;;3.40;;
79084;SDS011;68486;42.808;23.422;2023-04-01T19:07:47;4.85;;;3.50;;
79084;SDS011;68486;42.808;23.422;2023-04-01T19:11:31;3.80;;;2.83;;
79084;SDS011;68486;42.808;23.422;2023-04-01T19:37:26;3.80;;;2.38;;
79084;SDS011;68486;42.808;23.422;2023-04-01T19:40:52;2.72;;;2.28;;
79084;SDS011;68486;42.808;23.422;2023-04-01T19:52:07;3.55;;;2.28;;
79084;SDS011;68486;42.808;23.422;2023-04-01T19:55:49;2.97;;;2.47;;
79084;SDS011;68486;42.808;23.422;2023-04-01T20:10:17;3.42;;;2.03;;
79084;SDS011;68486;42.808;23.422;2023-04-01T20:17:46;4.13;;;2.38;;
79084;SDS011;68486;42.808;23.422;2023-04-01T20:29:02;3.90;;;3.10;;
79084;SDS011;68486;42.808;23.422;2023-04-01T20:36:25;3.72;;;2.80;;
79084;SDS011;68486;42.808;23.422;2023-04-01T20:43:57;3.63;;;2.75;;
79084;SDS011;68486;42.808;23.422;2023-04-01T20:51:43;3.55;;;2.50;;
79084;SDS011;68486;42.808;23.422;2023-04-01T20:55:27;3.85;;;2.63;;
79084;SDS011;68486;42.808;23.422;2023-04-01T21:03:06;4.75;;;2.72;;
79084;SDS011;68486;42.808;23.422;2023-04-01T21:06:35;3.75;;;2.72;;
79084;SDS011;68486;42.808;23.422;2023-04-01T21:40:39;4.10;;;2.70;;
79084;SDS011;68486;42.808;23.422;2023-04-01T21:48:01;4.97;;;3.17;;
79084;SDS011;68486;42.808;23.422;2023-04-01T22:10:41;4.45;;;2.78;;
79084;SDS011;68486;42.808;23.422;2023-04-01T22:13:17;4.80;;;2.67;;
79084;SDS011;68486;42.808;23.422;2023-04-01T22:18:43;3.53;;;2.50;;
79084;SDS011;68486;42.808;23.422;2023-04-01T22:23:49;3.97;;;2.25;;
79084;SDS011;68486;42.808;23.422;2023-04-01T22:26:45;3.05;;;2.17;;
79084;SDS011;68486;42.808;23.422;2023-04-01T22:29:28;2.42;;;1.77;;
79084;SDS011;68486;42.808;23.422;2023-04-01T22:32:03;3.42;;;2.30;;
79084;SDS011;68486;42.808;23.422;2023-04-01T22:37:31;3.47;;;1.90;;
79084;SDS011;68486;42.808;23.422;2023-04-01T22:40:16;2.85;;;1.85;;
79084;SDS011;68486;42.808;23.422;2023-04-01T22:43:10;4.47;;;2.35;;
79084;SDS011;68486;42.808;23.422;2023-04-01T22:51:15;3.03;;;2.45;;
79084;SDS011;68486;42.808;23.422;2023-04-01T22:53:59;7.78;;;2.20;;
79084;SDS011;68486;42.808;23.422;2023-04-01T22:56:35;3.10;;;2.40;;
79084;SDS011;68486;42.808;23.422;2023-04-01T22:59:07;3.13;;;2.50;;
79084;SDS011;68486;42.808;23.422;2023-04-01T23:01:44;2.90;;;2.20;;
79084;SDS011;68486;42.808;23.422;2023-04-01T23:04:24;3.38;;;2.38;;
79084;SDS011;68486;42.808;23.422;2023-04-01T23:06:57;4.15;;;2.47;;
79084;SDS011;68486;42.808;23.422;2023-04-01T23:09:29;3.88;;;2.25;;
79084;SDS011;68486;42.808;23.422;2023-04-01T23:14:33;2.72;;;2.15;;
79084;SDS011;68486;42.808;23.422;2023-04-01T23:38:24;3.13;;;1.75;;
79084;SDS011;68486;42.808;23.422;2023-04-01T23:40:51;3.50;;;2.20;;
79084;SDS011;68486;42.808;23.422;2023-04-01T23:43:24;5.15;;;1.95;;
79084;SDS011;68486;42.808;23.422;2023-04-01T23:45:55;3.67;;;2.03;;
79084;SDS011;68486;42.808;23.422;2023-04-01T23:48:24;3.20;;;2.35;;
79084;SDS011;68486;42.808;23.422;2023-04-01T23:50:56;3.20;;;2.17;;
79084;SDS011;68486;42.808;23.422;2023-04-01T23:53:24;2.45;;;1.80;;
79084;SDS011;68486;42.808;23.422;2023-04-01T23:55:53;3.15;;;1.80;;
